createdAt,value
2023-02-18T00:00:06.970Z,100675.06
2023-02-18T00:02:34.854Z,100681.38
2023-02-18T00:05:02.850Z,100678.81
2023-02-18T00:07:30.650Z,100681.72
2023-02-18T00:09:58.470Z,100679.84
2023-02-18T00:12:26.274Z,100689.06
2023-02-18T00:14:54.086Z,100685.66
2023-02-18T00:17:22.040Z,100689.25
2023-02-18T00:19:49.942Z,100691.97
2023-02-18T00:22:17.720Z,100695.72
2023-02-18T00:24:45.581Z,100692.16
2023-02-18T00:27:13.421Z,100689.44
2023-02-18T00:29:41.266Z,100684.16
2023-02-18T00:32:09.158Z,100684.16
2023-02-18T00:34:36.941Z,100681.59
2023-02-18T00:37:04.693Z,100691.84
2023-02-18T00:39:32.555Z,100690.13
2023-02-18T00:42:00.587Z,100684.00
2023-02-18T00:44:28.406Z,100679.44
2023-02-18T00:46:56.158Z,100676.88
2023-02-18T00:49:24.136Z,100671.44
2023-02-18T00:51:51.947Z,100680.81
2023-02-18T00:54:19.751Z,100681.66
2023-02-18T00:56:47.652Z,100681.66
2023-02-18T00:59:15.473Z,100683.72
2023-02-18T01:01:43.308Z,100689.16
2023-02-18T01:04:11.298Z,100688.31
2023-02-18T01:06:39.084Z,100694.81
2023-02-18T01:09:06.867Z,100684.91
2023-02-18T01:11:34.726Z,100686.63
2023-02-18T01:14:02.502Z,100693.97
2023-02-18T01:16:30.354Z,100684.06
2023-02-18T01:18:58.209Z,100685.97
2023-02-18T01:21:26.053Z,100687.63
2023-02-18T01:23:53.842Z,100691.56
2023-02-18T01:26:21.661Z,100692.63
2023-02-18T01:28:49.538Z,100689.03
2023-02-18T01:31:18.623Z,100682.56
2023-02-18T01:33:46.458Z,100684.59
2023-02-18T01:36:14.717Z,100691.78
2023-02-18T01:38:42.590Z,100683.59
2023-02-18T01:41:10.399Z,100685.47
2023-02-18T01:43:38.291Z,100683.59
2023-02-18T01:46:06.254Z,100688.19
2023-02-18T01:48:34.292Z,100695.50
2023-02-18T01:51:02.064Z,100707.44
2023-02-18T01:53:29.937Z,100708.50
2023-02-18T01:55:57.723Z,100703.88
2023-02-18T01:58:25.526Z,100697.38
2023-02-18T02:00:53.324Z,100702.16
2023-02-18T02:03:21.203Z,100699.44
2023-02-18T02:05:49.310Z,100704.03
2023-02-18T02:08:17.127Z,100705.94
2023-02-18T02:10:44.932Z,100714.09
2023-02-18T02:13:12.694Z,100713.25
2023-02-18T02:15:40.448Z,100706.13
2023-02-18T02:18:08.307Z,100718.72
2023-02-18T02:20:36.089Z,100713.25
2023-02-18T02:23:03.869Z,100708.84
2023-02-18T02:25:31.677Z,100705.25
2023-02-18T02:27:59.430Z,100705.25
2023-02-18T02:30:27.348Z,100706.13
2023-02-18T02:32:55.201Z,100703.19
2023-02-18T02:35:23.199Z,100698.44
2023-02-18T02:37:51.067Z,100697.38
2023-02-18T02:40:18.993Z,100696.53
2023-02-18T02:42:47.987Z,100700.13
2023-02-18T02:45:15.840Z,100702.00
2023-02-18T02:47:43.608Z,100703.88
2023-02-18T02:50:11.380Z,100689.41
2023-02-18T02:52:46.243Z,100693.81
2023-02-18T02:55:14.125Z,100682.75
2023-02-18T02:57:41.982Z,100681.88
2023-02-18T03:00:10.472Z,100680.19
2023-02-18T03:02:38.754Z,100673.06
2023-02-18T03:05:06.548Z,100677.63
2023-02-18T03:07:34.931Z,100667.78
2023-02-18T03:10:02.947Z,100678.88
2023-02-18T03:12:30.686Z,100670.88
2023-02-18T03:14:58.587Z,100666.63
2023-02-18T03:17:26.379Z,100673.75
2023-02-18T03:19:54.176Z,100675.84
2023-02-18T03:22:22.055Z,100661.53
2023-02-18T03:24:49.910Z,100669.50
2023-02-18T03:27:17.712Z,100673.13
2023-02-18T03:29:45.459Z,100681.44
2023-02-18T03:32:13.285Z,100677.88
2023-02-18T03:34:41.135Z,100677.88
2023-02-18T03:37:08.974Z,100671.59
2023-02-18T03:39:36.882Z,100668.00
2023-02-18T03:42:04.657Z,100663.41
2023-02-18T03:44:32.451Z,100668.66
2023-02-18T03:47:00.226Z,100663.41
2023-02-18T03:49:28.008Z,100664.25
2023-02-18T03:51:55.850Z,100669.50
2023-02-18T03:54:23.762Z,100658.63
2023-02-18T03:56:51.594Z,100656.56
2023-02-18T03:59:19.569Z,100658.09
2023-02-18T04:01:47.323Z,100654.34
2023-02-18T04:04:15.261Z,100651.78
2023-02-18T04:06:43.051Z,100651.13
2023-02-18T04:09:10.745Z,100651.13
2023-02-18T04:11:38.528Z,100652.84
2023-02-18T04:14:06.413Z,100646.50
2023-02-18T04:16:34.214Z,100647.38
2023-02-18T04:19:02.199Z,100645.66
2023-02-18T04:21:30.013Z,100657.41
2023-02-18T04:23:57.778Z,100666.63
2023-02-18T04:26:25.597Z,100663.91
2023-02-18T04:28:53.381Z,100662.22
2023-02-18T04:31:21.298Z,100668.50
2023-02-18T04:33:49.060Z,100671.03
2023-02-18T04:36:16.831Z,100666.63
2023-02-18T04:38:44.586Z,100659.28
2023-02-18T04:41:12.899Z,100661.19
2023-02-18T04:43:40.733Z,100669.34
2023-02-18T04:46:08.828Z,100648.38
2023-02-18T04:48:36.914Z,100644.81
2023-02-18T04:51:04.648Z,100637.69
2023-02-18T04:53:32.505Z,100637.69
2023-02-18T04:56:00.518Z,100632.25
2023-02-18T04:58:28.327Z,100629.69
2023-02-18T05:00:56.121Z,100620.47
2023-02-18T05:03:23.934Z,100617.94
2023-02-18T05:05:51.756Z,100618.94
2023-02-18T05:08:19.521Z,100615.38
2023-02-18T05:10:47.295Z,100619.16
2023-02-18T05:13:15.078Z,100606.38
2023-02-18T05:15:42.884Z,100600.25
2023-02-18T05:18:10.799Z,100603.16
2023-02-18T05:20:38.598Z,100596.84
2023-02-18T05:23:06.450Z,100589.69
2023-02-18T05:25:34.215Z,100588.84
2023-02-18T05:28:01.996Z,100580.00
2023-02-18T05:30:29.892Z,100571.81
2023-02-18T05:32:57.765Z,100560.25
2023-02-18T05:35:25.570Z,100543.91
2023-02-18T05:37:53.400Z,100542.53
2023-02-18T05:40:21.158Z,100552.25
2023-02-18T05:42:49.026Z,100544.41
2023-02-18T05:45:16.813Z,100537.06
2023-02-18T05:47:44.624Z,100537.31
2023-02-18T05:50:12.416Z,100541.66
2023-02-18T05:52:40.206Z,100531.28
2023-02-18T05:55:08.038Z,100540.25
2023-02-18T05:57:35.781Z,100552.63
2023-02-18T06:00:05.404Z,100544.41
2023-02-18T06:02:33.270Z,100533.56
2023-02-18T06:05:01.042Z,100533.44
2023-02-18T06:07:28.887Z,100531.41
2023-02-18T06:09:56.788Z,100531.88
2023-02-18T06:12:24.568Z,100536.94
2023-02-18T06:14:52.362Z,100536.13
2023-02-18T06:17:20.130Z,100538.66
2023-02-18T06:19:48.014Z,100541.69
2023-02-18T06:22:15.783Z,100535.41
2023-02-18T06:24:43.540Z,100546.03
2023-02-18T06:27:11.368Z,100533.31
2023-02-18T06:29:39.169Z,100541.72
2023-02-18T06:32:07.077Z,100537.25
2023-02-18T06:34:35.023Z,100526.94
2023-02-18T06:37:02.798Z,100535.97
2023-02-18T06:39:30.677Z,100520.59
2023-02-18T06:41:58.556Z,100533.88
2023-02-18T06:44:26.399Z,100499.88
2023-02-18T06:46:54.240Z,100525.16
2023-02-18T06:49:22.144Z,100499.16
2023-02-18T06:51:49.990Z,100499.72
2023-02-18T06:54:17.769Z,100498.00
2023-02-18T06:56:45.558Z,100473.31
2023-02-18T06:59:13.913Z,100486.78
2023-02-18T07:01:41.733Z,100479.84
2023-02-18T07:04:09.558Z,100471.47
2023-02-18T07:06:37.553Z,100464.88
2023-02-18T07:09:05.368Z,100463.03
2023-02-18T07:11:33.168Z,100452.69
2023-02-18T07:14:01.080Z,100437.81
2023-02-18T07:16:28.864Z,100441.38
2023-02-18T07:18:56.646Z,100435.56
2023-02-18T07:21:24.493Z,100436.56
2023-02-18T07:23:52.289Z,100431.00
2023-02-18T07:26:20.119Z,100433.59
2023-02-18T07:28:48.137Z,100434.13
2023-02-18T07:31:17.772Z,100433.75
2023-02-18T07:33:45.638Z,100426.50
2023-02-18T07:36:13.426Z,100415.38
2023-02-18T07:38:42.130Z,100410.53
2023-02-18T07:41:10.754Z,100413.00
2023-02-18T07:43:38.526Z,100409.97
2023-02-18T07:46:06.643Z,100406.50
2023-02-18T07:48:34.642Z,100394.06
2023-02-18T07:51:02.363Z,100394.56
2023-02-18T07:53:30.120Z,100387.44
2023-02-18T07:56:00.188Z,100384.44
2023-02-18T07:58:28.050Z,100397.06
2023-02-18T08:00:55.815Z,100400.00
2023-02-18T08:03:23.612Z,100378.50
2023-02-18T08:05:52.843Z,100379.31
2023-02-18T08:08:20.932Z,100379.69
2023-02-18T08:10:48.736Z,100383.44
2023-02-18T08:13:16.535Z,100371.00
2023-02-18T08:15:44.350Z,100372.41
2023-02-18T08:18:12.136Z,100371.56
2023-02-18T08:20:39.944Z,100362.28
2023-02-18T08:23:07.793Z,100364.34
2023-02-18T08:25:35.567Z,100357.31
2023-02-18T08:28:03.337Z,100349.53
2023-02-18T08:30:31.256Z,100360.88
2023-02-18T08:32:59.090Z,100349.56
2023-02-18T08:35:26.914Z,100360.16
2023-02-18T08:37:55.150Z,100358.19
2023-02-18T08:40:23.502Z,100362.75
2023-02-18T08:42:51.284Z,100361.59
2023-02-18T08:45:19.049Z,100358.13
2023-02-18T08:48:17.373Z,100342.25
2023-02-18T08:50:34.725Z,100340.91
2023-02-18T08:53:03.601Z,100335.84
2023-02-18T08:55:31.342Z,100342.53
2023-02-18T08:57:59.159Z,100323.44
2023-02-18T09:00:27.000Z,100328.81
2023-02-18T09:02:54.789Z,100308.00
2023-02-18T09:05:22.576Z,100310.00
2023-02-18T09:07:50.392Z,100306.13
2023-02-18T09:10:18.152Z,100297.78
2023-02-18T09:12:45.941Z,100293.97
2023-02-18T09:15:13.701Z,100298.44
2023-02-18T09:17:41.508Z,100303.38
2023-02-18T09:20:09.326Z,100295.66
2023-02-18T09:22:37.071Z,100302.84
2023-02-18T09:25:04.849Z,100286.81
2023-02-18T09:27:32.592Z,100285.81
2023-02-18T09:30:00.381Z,100286.13
2023-02-18T09:32:34.820Z,100276.69
2023-02-18T09:35:03.460Z,100271.81
2023-02-18T09:37:31.303Z,100270.13
2023-02-18T09:40:00.138Z,100264.81
2023-02-18T09:42:28.160Z,100256.03
2023-02-18T09:44:55.954Z,100260.78
2023-02-18T09:47:23.765Z,100250.72
2023-02-18T09:49:51.532Z,100255.00
2023-02-18T09:52:19.346Z,100239.41
2023-02-18T09:54:47.190Z,100224.88
2023-02-18T09:57:14.993Z,100219.88
2023-02-18T09:59:42.798Z,100220.09
2023-02-18T10:02:10.518Z,100216.25
2023-02-18T10:04:38.297Z,100209.53
2023-02-18T10:07:07.025Z,100211.00
2023-02-18T10:09:34.801Z,100216.25
2023-02-18T10:12:02.590Z,100210.34
2023-02-18T10:14:31.867Z,100213.50
2023-02-18T10:16:59.662Z,100207.16
2023-02-18T10:19:27.461Z,100199.34
2023-02-18T10:21:55.311Z,100195.50
2023-02-18T10:24:23.066Z,100194.63
2023-02-18T10:26:50.851Z,100184.91
2023-02-18T10:29:21.381Z,100177.13
2023-02-18T10:31:49.602Z,100179.81
2023-02-18T10:34:17.526Z,100173.47
2023-02-18T10:36:45.282Z,100157.66
2023-02-18T10:39:13.098Z,100161.41
2023-02-18T10:41:40.845Z,100156.69
2023-02-18T10:44:08.701Z,100153.72
2023-02-18T10:46:36.569Z,100154.38
2023-02-18T10:49:04.566Z,100149.50
2023-02-18T10:51:32.374Z,100148.00
2023-02-18T10:54:00.164Z,100150.28
2023-02-18T10:56:27.935Z,100168.97
2023-02-18T10:58:55.779Z,100160.34
2023-02-18T11:01:23.581Z,100163.66
2023-02-18T11:06:19.128Z,100154.56
2023-02-18T11:08:46.890Z,100142.19
2023-02-18T11:11:14.670Z,100146.38
2023-02-18T11:13:42.460Z,100156.63
2023-02-18T11:16:10.432Z,100147.78
2023-02-18T11:18:38.583Z,100143.63
2023-02-18T11:21:26.134Z,100128.53
2023-02-18T11:23:53.941Z,100145.75
2023-02-18T11:26:21.776Z,100136.72
2023-02-18T11:28:49.560Z,100134.22
2023-02-18T11:31:17.496Z,100130.00
2023-02-18T11:33:45.974Z,100120.94
2023-02-18T11:36:15.424Z,100118.19
2023-02-18T11:38:44.897Z,100128.50
2023-02-18T11:41:13.852Z,100121.75
2023-02-18T11:43:41.655Z,100123.63
2023-02-18T11:46:09.416Z,100110.84
2023-02-18T11:48:37.146Z,100085.63
2023-02-18T11:51:07.149Z,100091.47
2023-02-18T11:53:35.245Z,100085.19
2023-02-18T11:56:06.910Z,100091.88
2023-02-18T11:58:34.652Z,100090.41
2023-02-18T12:01:03.474Z,100101.50
2023-02-18T12:03:32.931Z,100100.88
2023-02-18T12:06:01.841Z,100092.88
2023-02-18T12:08:29.628Z,100093.06
2023-02-18T12:10:57.540Z,100097.69
2023-02-18T12:13:25.353Z,100099.97
2023-02-18T12:15:53.108Z,100091.97
2023-02-18T12:18:20.978Z,100073.09
2023-02-18T12:20:48.762Z,100073.25
2023-02-18T12:23:16.634Z,100074.94
2023-02-18T12:25:44.442Z,100062.53
2023-02-18T12:28:13.263Z,100065.25
2023-02-18T12:30:41.077Z,100073.44
2023-02-18T12:33:08.884Z,100054.34
2023-02-18T12:35:36.634Z,100042.59
2023-02-18T12:38:04.418Z,100040.94
2023-02-18T12:40:32.225Z,100040.09
2023-02-18T12:42:59.975Z,100030.22
2023-02-18T12:45:27.711Z,100023.84
2023-02-18T12:47:55.548Z,100038.91
2023-02-18T12:50:23.334Z,100054.56
2023-02-18T12:52:51.345Z,100058.09
2023-02-18T12:55:19.157Z,100056.38
2023-02-18T12:57:46.945Z,100066.75
2023-02-18T13:00:15.516Z,100064.88
2023-02-18T13:02:43.323Z,100061.97
2023-02-18T13:05:11.060Z,100059.81
2023-02-18T13:07:40.151Z,100080.59
2023-02-18T13:10:07.979Z,100070.94
2023-02-18T13:12:35.797Z,100069.41
2023-02-18T13:15:03.513Z,100064.66
2023-02-18T13:17:31.268Z,100078.59
2023-02-18T13:19:59.021Z,100066.75
2023-02-18T13:22:27.877Z,100059.94
2023-02-18T13:24:55.636Z,100064.66
2023-02-18T13:27:23.414Z,100055.66
2023-02-18T13:29:51.195Z,100056.81
2023-02-18T13:32:19.496Z,100065.28
2023-02-18T13:34:47.284Z,100085.38
2023-02-18T13:37:15.046Z,100085.28
2023-02-18T13:39:42.845Z,100083.38
2023-02-18T13:42:10.700Z,100080.50
2023-02-18T13:44:38.513Z,100077.56
2023-02-18T13:47:06.398Z,100061.84
2023-02-18T13:49:34.194Z,100065.41
2023-02-18T13:52:01.989Z,100063.34
2023-02-18T13:54:29.800Z,100072.53
2023-02-18T13:56:57.622Z,100062.50
2023-02-18T13:59:25.369Z,100059.44
2023-02-18T14:01:53.240Z,100086.91
2023-02-18T14:04:21.016Z,100071.06
2023-02-18T14:06:48.761Z,100074.84
2023-02-18T14:09:16.674Z,100087.63
2023-02-18T14:11:44.491Z,100074.78
2023-02-18T14:14:12.257Z,100089.38
2023-02-18T14:16:40.045Z,100091.00
2023-02-18T14:19:07.864Z,100100.69
2023-02-18T14:21:35.605Z,100087.91
2023-02-18T14:24:06.080Z,100104.00
2023-02-18T14:26:33.955Z,100104.72
2023-02-18T14:29:35.548Z,100099.06
2023-02-18T14:32:05.012Z,100113.06
2023-02-18T14:34:32.892Z,100094.34
2023-02-18T14:37:00.695Z,100100.22
2023-02-18T14:39:28.431Z,100093.34
2023-02-18T14:41:56.141Z,100092.00
2023-02-18T14:47:10.825Z,100105.78
2023-02-18T14:49:38.581Z,100093.28
2023-02-18T14:52:06.292Z,100107.78
2023-02-18T14:54:34.060Z,100112.78
2023-02-18T14:57:01.802Z,100129.38
2023-02-18T14:59:29.609Z,100127.53
2023-02-18T15:01:57.519Z,100129.94
2023-02-18T15:04:25.315Z,100126.91
2023-02-18T15:06:53.016Z,100122.84
2023-02-18T15:09:20.780Z,100135.91
2023-02-18T15:11:48.529Z,100131.91
2023-02-18T15:14:16.237Z,100130.44
2023-02-18T15:16:43.989Z,100114.53
2023-02-18T15:19:13.407Z,100130.63
2023-02-18T15:21:41.327Z,100143.06
2023-02-18T15:24:09.101Z,100146.06
2023-02-18T15:26:36.826Z,100153.94
2023-02-18T15:29:04.609Z,100138.03
2023-02-18T15:31:32.408Z,100148.56
2023-02-18T15:34:00.345Z,100157.28
2023-02-18T15:36:28.237Z,100156.44
2023-02-18T15:38:56.108Z,100158.72
2023-02-18T15:41:24.140Z,100160.13
2023-02-18T15:43:51.884Z,100168.69
2023-02-18T15:46:19.668Z,100170.63
2023-02-18T15:48:47.370Z,100172.78
2023-02-18T15:51:17.767Z,100169.47
2023-02-18T15:53:45.708Z,100173.31
2023-02-18T15:56:13.449Z,100168.28
2023-02-18T15:58:41.196Z,100180.25
2023-02-18T16:01:09.330Z,100173.75
2023-02-18T16:03:37.306Z,100175.63
2023-02-18T16:06:05.040Z,100180.03
2023-02-18T16:08:32.749Z,100186.13
2023-02-18T16:11:02.739Z,100187.38
2023-02-18T16:13:31.460Z,100185.88
2023-02-18T16:16:06.628Z,100191.72
2023-02-18T16:18:34.492Z,100187.50
2023-02-18T16:21:02.569Z,100202.19
2023-02-18T16:23:30.293Z,100194.78
2023-02-18T16:25:57.994Z,100205.72
2023-02-18T16:28:27.816Z,100197.06
2023-02-18T16:30:55.599Z,100212.06
2023-02-18T16:33:23.312Z,100205.28
2023-02-18T16:35:51.214Z,100208.38
2023-02-18T16:38:19.051Z,100209.22
2023-02-18T16:40:46.754Z,100219.19
2023-02-18T16:43:15.578Z,100216.78
2023-02-18T16:45:43.311Z,100221.97
2023-02-18T16:48:11.007Z,100229.38
2023-02-18T16:50:38.727Z,100222.44
2023-02-18T16:53:06.459Z,100226.13
2023-02-18T16:55:34.148Z,100237.00
2023-02-18T16:58:01.957Z,100234.13
2023-02-18T17:00:29.707Z,100231.59
2023-02-18T17:02:57.445Z,100238.94
2023-02-18T17:05:26.866Z,100242.69
2023-02-18T17:07:54.919Z,100242.28
2023-02-18T17:10:22.673Z,100248.06
2023-02-18T17:12:50.413Z,100263.34
2023-02-18T17:15:18.130Z,100249.66
2023-02-18T17:17:45.904Z,100259.94
2023-02-18T17:20:14.665Z,100260.41
2023-02-18T17:22:43.087Z,100262.50
2023-02-18T17:25:10.878Z,100263.13
2023-02-18T17:27:38.787Z,100272.56
2023-02-18T17:30:06.581Z,100269.31
2023-02-18T17:32:34.309Z,100266.78
2023-02-18T17:35:02.032Z,100258.84
2023-02-18T17:37:29.761Z,100268.84
2023-02-18T17:39:57.469Z,100277.03
2023-02-18T17:42:25.201Z,100292.09
2023-02-18T17:44:52.949Z,100310.06
2023-02-18T17:47:20.682Z,100301.78
2023-02-18T17:49:48.410Z,100302.38
2023-02-18T17:52:16.168Z,100299.50
2023-02-18T17:54:43.905Z,100317.31
2023-02-18T17:57:11.602Z,100318.22
2023-02-18T17:59:39.287Z,100333.44
2023-02-18T18:02:07.007Z,100325.00
2023-02-18T18:04:34.767Z,100318.88
2023-02-18T18:07:02.500Z,100325.44
2023-02-18T18:09:30.224Z,100323.53
2023-02-18T18:11:58.029Z,100325.59
2023-02-18T18:14:25.759Z,100322.59
2023-02-18T18:16:53.492Z,100333.97
2023-02-18T18:19:21.365Z,100326.56
2023-02-18T18:21:49.203Z,100327.38
2023-02-18T18:24:16.965Z,100337.66
2023-02-18T18:26:44.706Z,100337.38
2023-02-18T18:29:12.698Z,100333.56
2023-02-18T18:31:40.597Z,100344.44
2023-02-18T18:34:08.510Z,100344.41
2023-02-18T18:36:36.284Z,100334.25
2023-02-18T18:39:04.117Z,100353.00
2023-02-18T18:41:31.880Z,100348.47
2023-02-18T18:43:59.598Z,100346.59
2023-02-18T18:46:27.393Z,100361.09
2023-02-18T18:48:56.033Z,100365.78
2023-02-18T18:51:24.047Z,100363.16
2023-02-18T18:53:51.840Z,100365.06
2023-02-18T18:56:19.654Z,100359.19
2023-02-18T18:58:47.558Z,100371.50
2023-02-18T19:01:22.718Z,100380.09
2023-02-18T19:03:50.500Z,100365.84
2023-02-18T19:06:18.309Z,100364.28
2023-02-18T19:08:47.814Z,100379.53
2023-02-18T19:11:15.694Z,100368.88
2023-02-18T19:13:43.433Z,100375.56
2023-02-18T19:16:11.282Z,100366.06
2023-02-18T19:18:39.146Z,100368.31
2023-02-18T19:21:07.080Z,100360.41
2023-02-18T19:23:35.060Z,100360.50
2023-02-18T19:26:02.967Z,100361.38
2023-02-18T19:28:30.720Z,100368.28
2023-02-18T19:30:58.541Z,100367.53
2023-02-18T19:33:26.334Z,100362.06
2023-02-18T19:35:54.103Z,100361.38
2023-02-18T19:38:21.872Z,100356.09
2023-02-18T19:40:49.604Z,100364.34
2023-02-18T19:43:17.336Z,100364.63
2023-02-18T19:45:45.089Z,100374.38
2023-02-18T19:48:12.940Z,100369.50
2023-02-18T19:50:40.689Z,100364.75
2023-02-18T19:53:08.465Z,100363.63
2023-02-18T19:55:36.258Z,100370.00
2023-02-18T19:58:03.997Z,100372.78
2023-02-18T20:00:31.743Z,100371.78
2023-02-18T20:02:59.592Z,100382.78
2023-02-18T20:05:27.442Z,100376.00
2023-02-18T20:07:55.150Z,100383.59
2023-02-18T20:10:23.574Z,100385.47
2023-02-18T20:12:51.413Z,100389.44
2023-02-18T20:15:19.166Z,100386.00
2023-02-18T20:17:47.982Z,100384.53
2023-02-18T20:20:15.678Z,100396.06
2023-02-18T20:22:43.387Z,100397.72
2023-02-18T20:25:11.223Z,100403.56
2023-02-18T20:27:47.909Z,100405.81
2023-02-18T20:30:22.485Z,100399.22
2023-02-18T20:32:50.294Z,100392.69
2023-02-18T20:35:18.087Z,100392.81
2023-02-18T20:37:45.866Z,100391.09
2023-02-18T20:40:13.688Z,100395.88
2023-02-18T20:42:42.045Z,100397.72
2023-02-18T20:45:09.853Z,100400.59
2023-02-18T20:47:37.638Z,100398.84
2023-02-18T20:50:05.375Z,100399.28
2023-02-18T20:52:34.756Z,100386.28
2023-02-18T20:55:02.711Z,100395.94
2023-02-18T20:57:30.539Z,100393.84
2023-02-18T20:59:59.023Z,100395.06
2023-02-18T21:05:14.836Z,100394.97
2023-02-18T21:07:42.661Z,100400.00
2023-02-18T21:10:10.661Z,100394.94
2023-02-18T21:12:38.351Z,100394.47
2023-02-18T21:15:06.202Z,100398.44
2023-02-18T21:17:33.938Z,100402.41
2023-02-18T21:20:01.699Z,100405.34
2023-02-18T21:22:29.486Z,100403.03
2023-02-18T21:24:59.202Z,100393.31
2023-02-18T21:27:27.516Z,100398.94
2023-02-18T21:29:55.255Z,100405.47
2023-02-18T21:32:23.263Z,100397.63
2023-02-18T21:34:51.071Z,100389.66
2023-02-18T21:37:18.876Z,100387.94
2023-02-18T21:39:46.644Z,100396.34
2023-02-18T21:42:14.317Z,100391.28
2023-02-18T21:44:43.056Z,100387.91
2023-02-18T21:47:11.010Z,100385.34
2023-02-18T21:49:38.806Z,100384.91
2023-02-18T21:52:09.504Z,100377.94
2023-02-18T21:54:37.432Z,100388.88
2023-02-18T21:57:05.224Z,100381.75
2023-02-18T21:59:32.996Z,100384.84
2023-02-18T22:02:01.092Z,100396.16
2023-02-18T22:04:28.894Z,100398.22
2023-02-18T22:06:56.800Z,100396.53
2023-02-18T22:09:24.599Z,100396.09
2023-02-18T22:11:52.353Z,100389.97
2023-02-18T22:14:20.118Z,100401.94
2023-02-18T22:16:48.013Z,100401.06
2023-02-18T22:19:15.842Z,100384.91
2023-02-18T22:21:43.790Z,100391.59
2023-02-18T22:24:11.606Z,100380.88
2023-02-18T22:26:39.346Z,100387.38
2023-02-18T22:29:07.101Z,100374.13
2023-02-18T22:31:34.974Z,100371.56
2023-02-18T22:34:02.854Z,100382.50
2023-02-18T22:36:30.711Z,100382.88
2023-02-18T22:38:58.442Z,100384.94
2023-02-18T22:41:26.490Z,100384.28
2023-02-18T22:43:54.201Z,100379.88
2023-02-18T22:46:22.028Z,100384.50
2023-02-18T22:48:49.841Z,100388.25
2023-02-18T22:51:17.597Z,100390.31
2023-02-18T22:53:45.404Z,100387.81
2023-02-18T22:56:13.452Z,100390.72
2023-02-18T22:58:41.316Z,100382.72
2023-02-18T23:01:09.493Z,100381.03
2023-02-18T23:03:37.423Z,100386.47
2023-02-18T23:06:05.198Z,100385.66
2023-02-18T23:08:33.067Z,100385.66
2023-02-18T23:11:00.852Z,100375.78
2023-02-18T23:13:28.612Z,100387.72
2023-02-18T23:15:56.442Z,100378.69
2023-02-18T23:18:24.232Z,100380.75
2023-02-18T23:21:09.786Z,100378.03
2023-02-18T23:23:37.655Z,100372.78
2023-02-18T23:26:05.393Z,100371.06
2023-02-18T23:28:47.703Z,100367.50
2023-02-18T23:31:15.910Z,100371.28
2023-02-18T23:33:43.680Z,100370.44
2023-02-18T23:36:11.595Z,100366.81
2023-02-18T23:38:39.294Z,100363.25
2023-02-18T23:41:07.254Z,100363.25
2023-02-18T23:43:35.062Z,100348.94
2023-02-18T23:46:02.860Z,100348.75
2023-02-18T23:48:30.654Z,100347.09
2023-02-18T23:50:58.385Z,100346.03
2023-02-18T23:53:26.409Z,100346.22
2023-02-18T23:55:54.209Z,100347.25
2023-02-18T23:58:21.909Z,100341.81
